Au Sable, Michigan
Current Conditions -  °F | °C
As of 6:33 AM on Friday 24 Oct 2014 (Local Time) from KOSC Reporting Station
Overcast Overcast  
Wind Chill: 38°   Ceiling: 5000
Heat Index: 38°   Visibility: 7mi
Dew Point: 37°   Wind: 0mph
Humidity: 97%   Direction: NA
Pressure: 30.05"   Gusts: NA
Location:  44.4539°N, 83.4813°W
Report Text: KOSC 241033Z AUTO 00000KT 7SM OVC050 03/02 A3005 RMK AO2 T00310026
Loading
Personal Weather Stations






























Interactive Weather Map
Tropical Storm Tracking
New forecast layout! Learn more

10-Day Weather Forecast

Advertisements
Track Severe Weather on mobile